Time;durP1;ratioP1;P1;durP2;ratioP2;P2;SDS_P1;SDS_P2;PMS_P1;PMS_P2;Temp;Humidity;BMP_temperature;BMP_pressure;BME280_temperature;BME280_humidity;BME280_pressure;Samples;Min_cycle;Max_cycle;Signal;HPM_P1;HPM_P2
2021/07/27 11:10:31;;;;;;;;;;;20.20;75.30;;;;;;5051059;27;19924;-77
2021/07/27 11:12:58;;;;;;;;;;;20.00;75.50;;;;;;5062788;28;19982;-77
2021/07/27 11:15:25;;;;;;;;;;;20.10;73.80;;;;;;5059797;28;20004;-77
2021/07/27 11:18:01;;;;;;;;;;;20.30;72.90;;;;;;5047723;28;19932;-75
2021/07/27 11:20:30;;;;;;;;;;;20.50;73.00;;;;;;5068326;28;20013;-78
2021/07/27 11:23:00;;;;;;;;;;;20.70;72.70;;;;;;5055713;28;20059;-75
2021/07/27 11:25:27;;;;;;;;;;;20.80;73.20;;;;;;5063305;28;19929;-75
2021/07/27 11:27:53;;;;;;;;;;;21.00;72.50;;;;;;5057295;28;20286;-75
2021/07/27 11:30:20;;;;;;;;;;;21.20;70.60;;;;;;5068470;28;20432;-77
2021/07/27 11:32:50;;;;;;;;;;;21.40;70.30;;;;;;5049005;28;19979;-75
2021/07/27 11:35:17;;;;;;;;;;;21.50;69.60;;;;;;5062686;28;19928;-77
2021/07/27 11:37:45;;;;;;;;;;;21.70;67.70;;;;;;5069289;28;20062;-77
2021/07/27 11:40:24;;;;;;;;;;;21.80;67.30;;;;;;5060664;28;73812;-77
2021/07/27 11:43:06;;;;;;;;;;;21.90;66.40;;;;;;5043105;28;19982;-77
2021/07/27 11:45:36;;;;;;;;;;;22.00;66.50;;;;;;5042672;28;20011;-77
2021/07/27 11:48:03;;;;;;;;;;;22.10;66.00;;;;;;5049003;28;19972;-77
2021/07/27 11:50:33;;;;;;;;;;;22.30;66.30;;;;;;5048812;28;20062;-78
2021/07/27 11:53:00;;;;;;;;;;;22.50;66.10;;;;;;5048558;28;19929;-77
2021/07/27 11:55:27;;;;;;;;;;;22.70;65.50;;;;;;5045353;28;19975;-77
2021/07/27 11:57:53;;;;;;;;;;;22.80;65.30;;;;;;5045109;28;20400;-77
2021/07/27 12:00:19;;;;;;;;;;;22.90;64.90;;;;;;5038187;28;20008;-76
2021/07/27 12:02:46;;;;;;;;;;;23.00;65.30;;;;;;5047032;28;19925;-75
2021/07/27 12:05:12;;;;;;;;;;;23.10;64.30;;;;;;5035436;28;19925;-75
2021/07/27 12:07:39;;;;;;;;;;;23.10;62.50;;;;;;5028895;28;19929;-76
2021/07/27 12:10:06;;;;;;;;;;;23.10;61.50;;;;;;5027175;28;20491;-75
2021/07/27 12:12:32;;;;;;;;;;;23.10;61.90;;;;;;5050125;28;19933;-76
2021/07/27 12:14:58;;;;;;;;;;;23.20;60.50;;;;;;5026585;28;19925;-77
2021/07/27 12:17:25;;;;;;;;;;;23.10;60.90;;;;;;5028521;28;20436;-78
2021/07/27 12:19:51;;;;;;;;;;;23.10;61.10;;;;;;5025032;28;20305;-77
2021/07/27 12:22:17;;;;;;;;;;;23.20;61.40;;;;;;5015108;28;20032;-77
2021/07/27 12:24:44;;;;;;;;;;;23.20;60.60;;;;;;5004837;28;19925;-78
2021/07/27 12:27:10;;;;;;;;;;;23.20;60.80;;;;;;5011814;28;19936;-77
2021/07/27 12:29:36;;;;;;;;;;;23.30;61.10;;;;;;5014671;28;20677;-77
2021/07/27 12:32:02;;;;;;;;;;;23.30;61.20;;;;;;5015018;28;19929;-77
2021/07/27 12:34:29;;;;;;;;;;;23.30;60.30;;;;;;5015162;28;19929;-77
2021/07/27 12:36:55;;;;;;;;;;;23.30;59.60;;;;;;5014517;28;19968;-77
2021/07/27 12:39:22;;;;;;;;;;;23.20;60.40;;;;;;5014738;28;20417;-77
2021/07/27 12:41:49;;;;;;;;;;;23.00;60.80;;;;;;5014566;28;20645;-77
2021/07/27 12:44:16;;;;;;;;;;;23.00;61.00;;;;;;5014591;28;19932;-77
2021/07/27 12:46:43;;;;;;;;;;;22.90;61.60;;;;;;5014531;28;20071;-77
2021/07/27 12:49:13;;;;;;;;;;;22.90;61.10;;;;;;5014407;28;20390;-77
2021/07/27 12:51:39;;;;;;;;;;;22.80;61.50;;;;;;5013721;28;20039;-77
2021/07/27 12:54:06;;;;;;;;;;;22.80;62.10;;;;;;5014353;28;19969;-77
2021/07/27 12:56:38;;;;;;;;;;;22.80;62.40;;;;;;5013271;28;19936;-77
2021/07/27 12:59:05;;;;;;;;;;;22.80;62.30;;;;;;5014129;28;19926;-78
2021/07/27 13:01:33;;;;;;;;;;;22.90;62.70;;;;;;5013778;28;20482;-78
2021/07/27 13:03:59;;;;;;;;;;;23.00;62.60;;;;;;5013843;28;19948;-78
2021/07/27 13:06:26;;;;;;;;;;;23.00;63.00;;;;;;5010327;28;20427;-77
2021/07/27 13:08:52;;;;;;;;;;;23.10;62.60;;;;;;5012960;28;19936;-78
2021/07/27 13:11:18;;;;;;;;;;;23.10;61.90;;;;;;5013589;28;20012;-78
2021/07/27 13:13:44;;;;;;;;;;;23.10;61.90;;;;;;5013608;28;20024;-78
2021/07/27 13:16:10;;;;;;;;;;;23.10;61.80;;;;;;5013472;28;19934;-78
2021/07/27 13:18:37;;;;;;;;;;;23.20;61.70;;;;;;5013920;28;19926;-78
2021/07/27 13:21:03;;;;;;;;;;;23.20;61.30;;;;;;5014026;28;20027;-78
2021/07/27 13:23:29;;;;;;;;;;;23.30;60.90;;;;;;5000934;28;20208;-78
2021/07/27 13:25:55;;;;;;;;;;;23.20;59.60;;;;;;5013299;28;19932;-78
2021/07/27 13:28:22;;;;;;;;;;;23.10;60.20;;;;;;5013331;28;20363;-78
2021/07/27 13:30:48;;;;;;;;;;;23.10;61.00;;;;;;5012007;28;19937;-77
2021/07/27 13:33:14;;;;;;;;;;;23.00;60.50;;;;;;5012358;28;19948;-77
2021/07/27 13:35:40;;;;;;;;;;;23.00;61.20;;;;;;5013369;28;20042;-77
2021/07/27 13:38:06;;;;;;;;;;;22.90;61.60;;;;;;5012550;28;20456;-77
2021/07/27 13:40:32;;;;;;;;;;;22.90;62.70;;;;;;5012857;28;19979;-77
2021/07/27 13:42:59;;;;;;;;;;;22.90;62.40;;;;;;5013180;28;20032;-77
2021/07/27 13:45:25;;;;;;;;;;;22.90;62.00;;;;;;5013034;28;19930;-77
2021/07/27 13:47:51;;;;;;;;;;;23.00;62.00;;;;;;5011269;28;20402;-77
2021/07/27 13:50:17;;;;;;;;;;;23.00;61.70;;;;;;5012620;28;19979;-77
2021/07/27 13:52:44;;;;;;;;;;;23.00;62.40;;;;;;5011712;28;19930;-77
2021/07/27 13:55:10;;;;;;;;;;;23.00;62.40;;;;;;5012507;28;19933;-77
2021/07/27 13:57:36;;;;;;;;;;;23.00;62.10;;;;;;5012363;28;19926;-77
2021/07/27 14:00:04;;;;;;;;;;;23.00;62.10;;;;;;5012486;28;20015;-77
2021/07/27 14:02:30;;;;;;;;;;;23.10;61.90;;;;;;5012566;28;19987;-77
2021/07/27 14:04:56;;;;;;;;;;;23.00;60.50;;;;;;5012575;28;19925;-77
2021/07/27 14:07:22;;;;;;;;;;;23.00;60.70;;;;;;5011746;28;19932;-77
2021/07/27 14:09:48;;;;;;;;;;;23.00;61.30;;;;;;5011314;28;20425;-77
2021/07/27 14:12:14;;;;;;;;;;;22.90;61.90;;;;;;5012782;28;19936;-77
2021/07/27 14:14:41;;;;;;;;;;;22.90;62.70;;;;;;5011545;28;20389;-77
2021/07/27 14:17:07;;;;;;;;;;;22.80;64.30;;;;;;5011677;28;19930;-77
2021/07/27 14:19:33;;;;;;;;;;;22.70;65.40;;;;;;5010276;28;19933;-76
2021/07/27 14:21:59;;;;;;;;;;;22.60;66.50;;;;;;5010619;28;19987;-76
2021/07/27 14:24:28;;;;;;;;;;;22.50;68.40;;;;;;5012456;28;19932;-77
2021/07/27 14:26:54;;;;;;;;;;;22.40;69.30;;;;;;4999134;28;20446;-77
2021/07/27 14:29:20;;;;;;;;;;;22.20;70.20;;;;;;5009118;28;19929;-77
2021/07/27 14:31:47;;;;;;;;;;;22.10;71.30;;;;;;5009169;28;19936;-77
2021/07/27 14:34:13;;;;;;;;;;;22.00;72.50;;;;;;5009112;28;20074;-77
2021/07/27 14:36:39;;;;;;;;;;;21.90;72.50;;;;;;5008839;28;19933;-77
2021/07/27 14:39:05;;;;;;;;;;;21.90;72.20;;;;;;5008998;28;19930;-77
2021/07/27 14:41:31;;;;;;;;;;;21.90;71.90;;;;;;5040691;28;19930;-77
2021/07/27 14:43:59;;;;;;;;;;;22.00;71.80;;;;;;5009037;28;19936;-77
2021/07/27 14:46:25;;;;;;;;;;;21.90;71.60;;;;;;5008676;28;19977;-76
2021/07/27 14:48:52;;;;;;;;;;;22.00;71.20;;;;;;5008523;28;19929;-77
2021/07/27 14:51:19;;;;;;;;;;;22.00;71.20;;;;;;5006723;28;19937;-76
2021/07/27 14:53:45;;;;;;;;;;;21.90;69.70;;;;;;5008882;28;19975;-76
2021/07/27 14:56:11;;;;;;;;;;;21.70;70.00;;;;;;5008717;28;20112;-77
2021/07/27 14:58:37;;;;;;;;;;;21.70;70.60;;;;;;5009652;28;19991;-77
2021/07/27 15:01:03;;;;;;;;;;;21.60;71.60;;;;;;5011089;28;19992;-77
2021/07/27 15:03:29;;;;;;;;;;;21.60;70.50;;;;;;5011520;28;19925;-77
2021/07/27 15:05:56;;;;;;;;;;;21.70;69.70;;;;;;5011445;28;19968;-77
2021/07/27 15:08:22;;;;;;;;;;;21.70;69.80;;;;;;5009790;28;20377;-76
2021/07/27 15:10:48;;;;;;;;;;;21.70;69.80;;;;;;5011455;28;20384;-77
2021/07/27 15:13:14;;;;;;;;;;;21.70;70.10;;;;;;5010830;28;19965;-76
2021/07/27 15:15:40;;;;;;;;;;;21.70;70.30;;;;;;5009463;28;19929;-77
2021/07/27 15:18:06;;;;;;;;;;;21.80;70.60;;;;;;5011179;28;20174;-77
2021/07/27 15:20:33;;;;;;;;;;;21.80;71.60;;;;;;5011480;28;20012;-77
2021/07/27 15:22:59;;;;;;;;;;;21.90;70.50;;;;;;5003935;28;20064;-77
2021/07/27 15:25:25;;;;;;;;;;;21.90;70.50;;;;;;5008620;28;20365;-77
2021/07/27 15:27:51;;;;;;;;;;;21.90;69.00;;;;;;5009698;28;19972;-77
2021/07/27 15:30:17;;;;;;;;;;;21.90;69.10;;;;;;5009884;28;19929;-77
2021/07/27 15:32:45;;;;;;;;;;;21.90;69.10;;;;;;5008390;28;19969;-76
2021/07/27 15:35:12;;;;;;;;;;;21.80;69.30;;;;;;5009517;28;20023;-77
2021/07/27 15:37:41;;;;;;;;;;;21.70;69.50;;;;;;5010393;28;19933;-77
2021/07/27 15:40:08;;;;;;;;;;;21.50;70.90;;;;;;5010445;28;19979;-76
2021/07/27 15:42:34;;;;;;;;;;;21.50;70.70;;;;;;5010256;28;20020;-77
2021/07/27 15:45:01;;;;;;;;;;;21.40;72.10;;;;;;5008782;28;20028;-77
2021/07/27 15:47:28;;;;;;;;;;;21.40;72.50;;;;;;5008055;28;19936;-76
2021/07/27 15:49:54;;;;;;;;;;;21.40;73.00;;;;;;5008378;28;20027;-77
2021/07/27 15:52:20;;;;;;;;;;;21.40;73.20;;;;;;5008229;28;19933;-77
2021/07/27 15:54:46;;;;;;;;;;;21.40;73.20;;;;;;4997848;28;20009;-77
2021/07/27 15:57:13;;;;;;;;;;;21.50;73.30;;;;;;5012215;28;19929;-76
2021/07/27 15:59:40;;;;;;;;;;;21.50;73.50;;;;;;5012461;28;19952;-77
2021/07/27 16:02:10;;;;;;;;;;;21.60;73.60;;;;;;5012043;28;19929;-76
2021/07/27 16:04:37;;;;;;;;;;;21.70;73.70;;;;;;5014041;28;19937;-77
2021/07/27 16:07:04;;;;;;;;;;;21.80;73.90;;;;;;5014375;28;19925;-76
2021/07/27 16:09:30;;;;;;;;;;;21.80;73.70;;;;;;5013982;28;19983;-76
2021/07/27 16:11:58;;;;;;;;;;;21.90;73.60;;;;;;5014635;28;19933;-77
2021/07/27 16:14:24;;;;;;;;;;;22.00;73.60;;;;;;5014731;28;19925;-77
2021/07/27 16:16:50;;;;;;;;;;;22.00;73.40;;;;;;5014333;28;19988;-76
2021/07/27 16:19:16;;;;;;;;;;;22.10;73.50;;;;;;5013853;28;19925;-77
2021/07/27 16:21:42;;;;;;;;;;;22.10;73.30;;;;;;5014687;28;19925;-77
2021/07/27 16:24:09;;;;;;;;;;;22.10;73.10;;;;;;5013723;28;19929;-77
2021/07/27 16:26:35;;;;;;;;;;;22.20;73.10;;;;;;5014230;28;19948;-77
2021/07/27 16:29:01;;;;;;;;;;;22.20;73.00;;;;;;5014170;28;19930;-77
2021/07/27 16:31:28;;;;;;;;;;;22.20;73.00;;;;;;5014092;28;19929;-77
2021/07/27 16:33:54;;;;;;;;;;;22.20;73.00;;;;;;5012462;28;20016;-77
2021/07/27 16:36:20;;;;;;;;;;;22.30;73.10;;;;;;5011806;28;19930;-77
2021/07/27 16:38:50;;;;;;;;;;;22.30;73.80;;;;;;5011774;28;20027;-76
2021/07/27 16:41:16;;;;;;;;;;;22.30;72.70;;;;;;5006928;28;19930;-77
2021/07/27 16:43:42;;;;;;;;;;;22.40;72.60;;;;;;5011400;28;19930;-77
2021/07/27 16:46:11;;;;;;;;;;;22.40;72.30;;;;;;5011288;28;20064;-77
2021/07/27 16:48:39;;;;;;;;;;;22.50;72.00;;;;;;5013485;28;19980;-77
2021/07/27 16:51:06;;;;;;;;;;;22.50;71.70;;;;;;5013719;28;19933;-77
2021/07/27 16:53:32;;;;;;;;;;;22.50;71.20;;;;;;5013649;28;20124;-77
2021/07/27 16:55:58;;;;;;;;;;;22.50;70.90;;;;;;5013743;28;20056;-77
2021/07/27 16:58:24;;;;;;;;;;;22.50;70.80;;;;;;5012543;28;20743;-77
2021/07/27 17:00:50;;;;;;;;;;;22.50;70.70;;;;;;5013531;28;19929;-77
2021/07/27 17:03:16;;;;;;;;;;;22.50;71.00;;;;;;5002345;28;19952;-77
2021/07/27 17:05:43;;;;;;;;;;;22.40;71.30;;;;;;5013823;28;19987;-77
2021/07/27 17:08:09;;;;;;;;;;;22.40;71.20;;;;;;5012750;28;19967;-76
2021/07/27 17:10:35;;;;;;;;;;;22.30;71.00;;;;;;5013600;28;20072;-77
2021/07/27 17:13:02;;;;;;;;;;;22.30;71.10;;;;;;5013322;28;19934;-76
2021/07/27 17:15:28;;;;;;;;;;;22.30;71.30;;;;;;5013272;28;20685;-76
2021/07/27 17:17:54;;;;;;;;;;;22.30;71.60;;;;;;5013419;28;19925;-79
2021/07/27 17:20:21;;;;;;;;;;;22.30;71.90;;;;;;5011482;28;20016;-74
2021/07/27 17:22:47;;;;;;;;;;;22.20;71.80;;;;;;5013336;28;19948;-77
2021/07/27 17:25:14;;;;;;;;;;;22.10;71.10;;;;;;5013783;28;19925;-78
2021/07/27 17:27:41;;;;;;;;;;;21.90;71.10;;;;;;5013064;28;20429;-78
2021/07/27 17:30:08;;;;;;;;;;;21.80;71.60;;;;;;5013242;28;19936;-77
2021/07/27 17:32:36;;;;;;;;;;;21.70;71.90;;;;;;5013736;28;19926;-77
2021/07/27 17:35:03;;;;;;;;;;;21.60;72.00;;;;;;5012314;28;19934;-75
2021/07/27 17:37:30;;;;;;;;;;;21.60;72.30;;;;;;5011332;28;19929;-77
2021/07/27 17:39:56;;;;;;;;;;;21.50;72.00;;;;;;5011587;28;19929;-77
2021/07/27 17:42:26;;;;;;;;;;;21.50;72.40;;;;;;5009930;28;20007;-74
2021/07/27 17:44:53;;;;;;;;;;;21.40;72.90;;;;;;5007023;28;20377;-74
2021/07/27 17:47:19;;;;;;;;;;;21.40;73.20;;;;;;5009511;28;19989;-75
2021/07/27 17:49:45;;;;;;;;;;;21.40;73.20;;;;;;5009222;28;20398;-74
2021/07/27 17:52:11;;;;;;;;;;;21.30;73.10;;;;;;5006686;28;19929;-74
2021/07/27 17:54:38;;;;;;;;;;;21.30;73.00;;;;;;5009401;28;19929;-73
2021/07/27 17:57:04;;;;;;;;;;;21.30;73.10;;;;;;5009289;28;20372;-74
2021/07/27 17:59:30;;;;;;;;;;;21.20;73.10;;;;;;5008822;28;19933;-74
2021/07/27 18:01:56;;;;;;;;;;;21.30;73.10;;;;;;5009217;28;20405;-74
2021/07/27 18:04:22;;;;;;;;;;;21.20;73.20;;;;;;5008751;28;19986;-79
2021/07/27 18:06:49;;;;;;;;;;;21.20;73.40;;;;;;5009177;28;19999;-79
2021/07/27 18:09:15;;;;;;;;;;;21.20;73.70;;;;;;5005462;28;20329;-80
2021/07/27 18:11:42;;;;;;;;;;;21.20;74.20;;;;;;5009504;28;19991;-78
2021/07/27 18:14:08;;;;;;;;;;;21.20;74.40;;;;;;5008128;28;19930;-79
2021/07/27 18:16:34;;;;;;;;;;;21.20;74.60;;;;;;5007760;28;19936;-76
2021/07/27 18:19:00;;;;;;;;;;;21.20;74.80;;;;;;5007339;28;19929;-77
2021/07/27 18:21:31;;;;;;;;;;;21.20;75.20;;;;;;5007663;28;19930;-77
2021/07/27 18:23:58;;;;;;;;;;;21.30;75.40;;;;;;5008517;28;19955;-76
2021/07/27 18:26:24;;;;;;;;;;;21.30;75.60;;;;;;5007707;28;20031;-78
2021/07/27 18:28:51;;;;;;;;;;;21.30;75.70;;;;;;5007491;28;19929;-78
2021/07/27 18:31:17;;;;;;;;;;;21.30;75.70;;;;;;5008311;28;20387;-77
2021/07/27 18:33:43;;;;;;;;;;;21.30;75.90;;;;;;5008031;28;19984;-76
2021/07/27 18:36:09;;;;;;;;;;;21.30;77.20;;;;;;5007816;28;19929;-80
2021/07/27 18:38:35;;;;;;;;;;;21.30;76.30;;;;;;5008687;28;19937;-79
2021/07/27 18:41:01;;;;;;;;;;;21.30;76.50;;;;;;5008468;28;19929;-78
2021/07/27 18:43:27;;;;;;;;;;;21.30;76.40;;;;;;5008789;28;19975;-78
2021/07/27 18:45:53;;;;;;;;;;;21.30;76.00;;;;;;5009850;28;20019;-79
2021/07/27 18:48:20;;;;;;;;;;;21.30;75.20;;;;;;5009056;28;19929;-78
2021/07/27 18:50:46;;;;;;;;;;;21.20;74.90;;;;;;5008614;28;20305;-77
2021/07/27 18:53:17;;;;;;;;;;;21.20;74.80;;;;;;5007442;28;20013;-78
2021/07/27 18:55:43;;;;;;;;;;;21.10;74.60;;;;;;5008578;28;20415;-77
2021/07/27 18:58:11;;;;;;;;;;;21.00;74.60;;;;;;5023365;28;20500;-78
2021/07/27 19:00:37;;;;;;;;;;;21.00;74.60;;;;;;5008704;28;20050;-76
2021/07/27 19:03:04;;;;;;;;;;;21.00;74.40;;;;;;4994925;28;19971;-76
2021/07/27 19:05:30;;;;;;;;;;;20.90;74.60;;;;;;5008027;28;20393;-76
2021/07/27 19:07:56;;;;;;;;;;;20.80;74.70;;;;;;5008176;28;19930;-77
2021/07/27 19:10:22;;;;;;;;;;;20.70;75.30;;;;;;5008399;28;19929;-77
2021/07/27 19:12:49;;;;;;;;;;;20.70;75.60;;;;;;5007023;28;19971;-77
2021/07/27 19:15:15;;;;;;;;;;;20.70;76.20;;;;;;5008209;28;19976;-76
2021/07/27 19:17:45;;;;;;;;;;;20.80;75.70;;;;;;5008406;28;20055;-78
2021/07/27 19:20:12;;;;;;;;;;;20.80;75.70;;;;;;5008157;28;20274;-76
2021/07/27 19:22:38;;;;;;;;;;;20.80;75.70;;;;;;5007432;28;20456;-77
2021/07/27 19:25:06;;;;;;;;;;;20.80;75.50;;;;;;5008643;28;19930;-78
2021/07/27 19:27:32;;;;;;;;;;;20.70;75.50;;;;;;5007907;28;19936;-78
2021/07/27 19:29:58;;;;;;;;;;;20.70;75.30;;;;;;5008379;28;19937;-79
2021/07/27 19:32:24;;;;;;;;;;;20.70;75.30;;;;;;5011270;28;20440;-76
2021/07/27 19:34:51;;;;;;;;;;;20.70;75.40;;;;;;5011574;28;20377;-76
2021/07/27 19:37:17;;;;;;;;;;;20.60;75.30;;;;;;5011355;28;19933;-76
2021/07/27 19:39:44;;;;;;;;;;;20.60;75.40;;;;;;5010864;28;19944;-76
2021/07/27 19:42:17;;;;;;;;;;;20.50;75.40;;;;;;5010627;28;19940;-76
2021/07/27 19:45:02;;;;;;;;;;;20.50;75.50;;;;;;5011598;28;19979;-78
2021/07/27 19:47:49;;;;;;;;;;;20.40;75.50;;;;;;5011976;28;19929;-78
2021/07/27 19:50:15;;;;;;;;;;;20.50;75.50;;;;;;5011731;28;20468;-78
2021/07/27 19:52:42;;;;;;;;;;;20.40;75.50;;;;;;5011552;28;20024;-78
2021/07/27 19:55:08;;;;;;;;;;;20.40;75.50;;;;;;5011394;28;19975;-78
2021/07/27 19:57:35;;;;;;;;;;;20.40;75.60;;;;;;5010108;28;20040;-77
2021/07/27 20:00:01;;;;;;;;;;;20.30;75.50;;;;;;5009111;28;19988;-76
2021/07/27 20:02:27;;;;;;;;;;;20.30;75.60;;;;;;5009309;28;19930;-77
2021/07/27 20:04:53;;;;;;;;;;;20.30;75.50;;;;;;5010522;28;20078;-77
2021/07/27 20:07:19;;;;;;;;;;;20.30;76.50;;;;;;5014939;28;20147;-77
2021/07/27 20:09:45;;;;;;;;;;;20.20;75.50;;;;;;5014959;28;19991;-77
2021/07/27 20:12:12;;;;;;;;;;;20.20;75.50;;;;;;5011268;28;19929;-75
2021/07/27 20:14:41;;;;;;;;;;;20.20;75.50;;;;;;5013869;28;20040;-77
2021/07/27 20:17:10;;;;;;;;;;;20.10;75.50;;;;;;5014527;28;19925;-76
2021/07/27 20:19:36;;;;;;;;;;;20.20;75.60;;;;;;5014152;28;19929;-77
2021/07/27 20:22:03;;;;;;;;;;;20.10;75.80;;;;;;5014597;28;20497;-76
2021/07/27 20:24:29;;;;;;;;;;;20.10;75.80;;;;;;5012525;28;19929;-77
2021/07/27 20:26:55;;;;;;;;;;;20.10;75.80;;;;;;5013493;28;19968;-78
2021/07/27 20:29:21;;;;;;;;;;;20.00;75.80;;;;;;5014505;28;20445;-75
2021/07/27 20:31:47;;;;;;;;;;;20.00;75.80;;;;;;5013706;28;20060;-77
2021/07/27 20:34:13;;;;;;;;;;;20.00;75.80;;;;;;5012462;28;19930;-76
2021/07/27 20:36:40;;;;;;;;;;;20.00;75.90;;;;;;5014178;28;20036;-77
2021/07/27 20:39:06;;;;;;;;;;;19.90;76.90;;;;;;5013795;28;19934;-77
2021/07/27 20:41:36;;;;;;;;;;;19.90;76.00;;;;;;5014006;28;20370;-77
2021/07/27 20:44:02;;;;;;;;;;;19.90;75.90;;;;;;5014551;28;19925;-77
2021/07/27 20:46:30;;;;;;;;;;;19.90;75.80;;;;;;5014785;28;19952;-77
2021/07/27 20:48:56;;;;;;;;;;;19.80;75.70;;;;;;5014621;28;20012;-77
2021/07/27 20:51:22;;;;;;;;;;;19.80;75.90;;;;;;5013886;28;20044;-77
2021/07/27 20:53:48;;;;;;;;;;;19.80;76.00;;;;;;5014392;28;20042;-77
2021/07/27 20:56:14;;;;;;;;;;;19.80;76.20;;;;;;5014272;28;19926;-77
2021/07/27 20:58:41;;;;;;;;;;;19.80;76.30;;;;;;5013876;28;19925;-77
2021/07/27 21:01:08;;;;;;;;;;;19.80;76.40;;;;;;5012507;28;19932;-77
2021/07/27 21:03:35;;;;;;;;;;;19.70;76.40;;;;;;5012626;28;20050;-77
2021/07/27 21:06:01;;;;;;;;;;;19.70;76.20;;;;;;5013919;28;19933;-77
2021/07/27 21:08:27;;;;;;;;;;;19.70;76.30;;;;;;5013230;28;19984;-77
2021/07/27 21:10:53;;;;;;;;;;;19.70;76.40;;;;;;5013879;28;19929;-77
2021/07/27 21:13:21;;;;;;;;;;;19.70;76.30;;;;;;5011953;28;19926;-77
2021/07/27 21:15:48;;;;;;;;;;;19.80;76.20;;;;;;5013744;28;19926;-77
2021/07/27 21:18:14;;;;;;;;;;;19.80;76.10;;;;;;5012790;28;19933;-77
2021/07/27 21:20:40;;;;;;;;;;;19.70;76.00;;;;;;5014151;28;19975;-78
2021/07/27 21:23:07;;;;;;;;;;;19.80;76.10;;;;;;5013955;28;20308;-76
2021/07/27 21:25:34;;;;;;;;;;;19.80;76.40;;;;;;5013508;28;20170;-77
2021/07/27 21:28:01;;;;;;;;;;;19.80;76.70;;;;;;5012969;28;19930;-75
2021/07/27 21:30:28;;;;;;;;;;;19.80;76.90;;;;;;5012368;28;19940;-77
2021/07/27 21:32:56;;;;;;;;;;;19.70;77.00;;;;;;5013706;28;20404;-77
2021/07/27 21:35:22;;;;;;;;;;;19.70;77.10;;;;;;5013797;28;20034;-77
2021/07/27 21:37:48;;;;;;;;;;;19.70;77.20;;;;;;5014033;28;19933;-79
2021/07/27 21:40:15;;;;;;;;;;;19.70;77.30;;;;;;5013554;28;19936;-77
2021/07/27 21:42:43;;;;;;;;;;;19.70;77.40;;;;;;5013277;28;20008;-77
2021/07/27 21:45:10;;;;;;;;;;;19.70;77.40;;;;;;5013662;28;19929;-77
2021/07/27 21:47:38;;;;;;;;;;;19.60;77.40;;;;;;5013531;28;19933;-77
2021/07/27 21:50:04;;;;;;;;;;;19.60;77.60;;;;;;5013606;28;19937;-77
2021/07/27 21:52:31;;;;;;;;;;;19.60;77.70;;;;;;5013197;28;19977;-77
2021/07/27 21:54:57;;;;;;;;;;;19.60;77.70;;;;;;5012934;28;20427;-77
2021/07/27 21:57:23;;;;;;;;;;;19.60;77.80;;;;;;5013070;28;20087;-77
2021/07/27 21:59:49;;;;;;;;;;;19.60;77.90;;;;;;5012559;28;20285;-77
2021/07/27 22:02:16;;;;;;;;;;;19.70;78.10;;;;;;5013836;28;20411;-77
2021/07/27 22:04:42;;;;;;;;;;;19.60;78.10;;;;;;5012951;28;19925;-77
2021/07/27 22:07:08;;;;;;;;;;;19.70;78.20;;;;;;5013306;28;19934;-77
2021/07/27 22:09:34;;;;;;;;;;;19.60;78.20;;;;;;5013083;28;20455;-77
2021/07/27 22:12:01;;;;;;;;;;;19.60;78.20;;;;;;5013683;28;20011;-77
2021/07/27 22:14:27;;;;;;;;;;;19.60;78.10;;;;;;5013214;28;20397;-77
2021/07/27 22:16:53;;;;;;;;;;;19.60;78.20;;;;;;5013603;28;19925;-77
2021/07/27 22:19:19;;;;;;;;;;;19.60;78.10;;;;;;5013177;28;19983;-77
2021/07/27 22:21:46;;;;;;;;;;;19.50;78.00;;;;;;5012740;28;20603;-77
2021/07/27 22:24:12;;;;;;;;;;;19.60;78.10;;;;;;5013480;28;19944;-77
2021/07/27 22:26:38;;;;;;;;;;;19.50;78.00;;;;;;5012764;28;20393;-77
2021/07/27 22:29:04;;;;;;;;;;;19.50;78.00;;;;;;5012437;28;20416;-77
2021/07/27 22:31:30;;;;;;;;;;;19.50;77.90;;;;;;5012861;28;19925;-77
2021/07/27 22:33:57;;;;;;;;;;;19.50;77.70;;;;;;5012684;28;20415;-77
2021/07/27 22:36:24;;;;;;;;;;;19.40;77.70;;;;;;5013012;28;19996;-77
2021/07/27 22:38:50;;;;;;;;;;;19.50;77.70;;;;;;5012603;28;19933;-77
2021/07/27 22:41:17;;;;;;;;;;;19.50;77.70;;;;;;5012584;28;19976;-77
2021/07/27 22:43:43;;;;;;;;;;;19.40;77.50;;;;;;5013093;28;19925;-77
2021/07/27 22:46:09;;;;;;;;;;;19.40;77.40;;;;;;5010944;28;20340;-77
2021/07/27 22:48:36;;;;;;;;;;;19.40;77.30;;;;;;5012603;28;19925;-77
2021/07/27 22:51:02;;;;;;;;;;;19.40;77.20;;;;;;5012570;28;20009;-77
2021/07/27 22:53:28;;;;;;;;;;;19.40;77.10;;;;;;5012981;28;20393;-76
2021/07/27 22:55:54;;;;;;;;;;;19.40;77.10;;;;;;5012287;28;20286;-77
2021/07/27 22:58:20;;;;;;;;;;;19.30;77.00;;;;;;5012964;28;19925;-77
2021/07/27 23:00:46;;;;;;;;;;;19.40;77.10;;;;;;5012460;28;20008;-77
2021/07/27 23:03:13;;;;;;;;;;;19.30;77.10;;;;;;5011881;28;19973;-77
2021/07/27 23:05:40;;;;;;;;;;;19.30;77.10;;;;;;5011941;28;20068;-77
2021/07/27 23:08:06;;;;;;;;;;;19.20;77.00;;;;;;5012319;28;19929;-77
2021/07/27 23:10:32;;;;;;;;;;;19.20;76.90;;;;;;5012275;28;19971;-77
2021/07/27 23:12:58;;;;;;;;;;;19.20;76.90;;;;;;5012278;28;19926;-77
2021/07/27 23:15:24;;;;;;;;;;;19.20;76.90;;;;;;5012442;28;20306;-77
2021/07/27 23:17:51;;;;;;;;;;;19.10;76.80;;;;;;5012858;28;19926;-77
2021/07/27 23:20:17;;;;;;;;;;;19.10;76.90;;;;;;5012500;28;19961;-77
2021/07/27 23:22:47;;;;;;;;;;;19.10;76.80;;;;;;5013360;28;19926;-77
2021/07/27 23:25:31;;;;;;;;;;;19.00;76.50;;;;;;5012210;28;19949;-77
2021/07/27 23:27:58;;;;;;;;;;;19.00;76.40;;;;;;5012933;28;20427;-77
2021/07/27 23:30:25;;;;;;;;;;;19.00;76.30;;;;;;5004888;28;20306;-77
2021/07/27 23:32:51;;;;;;;;;;;19.00;76.10;;;;;;5012965;28;20119;-76
2021/07/27 23:35:17;;;;;;;;;;;18.90;76.00;;;;;;5013235;28;20060;-77
2021/07/27 23:37:44;;;;;;;;;;;18.90;76.00;;;;;;5011480;28;19947;-77
2021/07/27 23:40:11;;;;;;;;;;;18.90;75.90;;;;;;5013227;28;20381;-77
2021/07/27 23:42:37;;;;;;;;;;;18.80;75.80;;;;;;5012936;28;19925;-77
2021/07/27 23:45:04;;;;;;;;;;;18.80;75.50;;;;;;5013087;28;19933;-77
2021/07/27 23:47:34;;;;;;;;;;;18.80;75.30;;;;;;5012660;28;20012;-77
2021/07/27 23:50:00;;;;;;;;;;;18.80;75.10;;;;;;5013018;28;19988;-77
2021/07/27 23:52:26;;;;;;;;;;;18.70;74.80;;;;;;5012607;28;19983;-77
2021/07/27 23:54:52;;;;;;;;;;;18.70;74.50;;;;;;5012722;28;20416;-77
2021/07/27 23:57:18;;;;;;;;;;;18.60;74.30;;;;;;5012748;28;20051;-77
2021/07/27 23:59:45;;;;;;;;;;;18.60;74.20;;;;;;5004911;28;19999;-77
